Dartford, United Kingdom
Current Conditions -  °F | °C
As of 4:20 AM on Saturday 20 Dec 2014 (Local Time) from EGLC Reporting Station
Broken Clouds Broken Clouds  
Wind Chill: 37°   Ceiling: 4000
Heat Index: 45°   Visibility: 6mi
Dew Point: 37°   Wind: 16mph
Humidity: 76%   Direction: 250°WSW
Pressure: 30.21"   Gusts: NA
Location:  51.44°N, 0.22°E
Report Text: EGLC 200420Z AUTO 25014KT 9999 BKN040/// 07/03 Q1023
Loading
Personal Weather Stations






























Interactive Weather Map New forecast layout! Learn more

10-Day Weather Forecast

Advertisements
Track Severe Weather on mobile